Time;durP1;ratioP1;P1;durP2;ratioP2;P2;SDS_P1;SDS_P2;PMS_P1;PMS_P2;Temp;Humidity;BMP_temperature;BMP_pressure;BME280_temperature;BME280_humidity;BME280_pressure;Samples;Min_cycle;Max_cycle;Signal;HPM_P1;HPM_P2
2020/12/20 00:00:28;;;;;;;6.28;3.33;;;;;;;8.05;63.30;99081.22;5048862;28;19916;-69
2020/12/20 00:02:55;;;;;;;5.75;2.80;;;;;;;8.05;63.10;99081.22;5044357;28;20108;-69
2020/12/20 00:05:23;;;;;;;6.88;2.92;;;;;;;8.18;62.82;99069.81;5043031;28;20029;-70
2020/12/20 00:07:50;;;;;;;7.55;3.17;;;;;;;8.13;62.83;99073.06;5041476;28;20029;-69
2020/12/20 00:10:16;;;;;;;6.13;2.90;;;;;;;8.08;63.40;99086.22;5038844;28;20091;-69
2020/12/20 00:12:42;;;;;;;3.38;2.50;;;;;;;7.99;63.69;99087.31;5042514;28;20511;-70
2020/12/20 00:15:08;;;;;;;9.65;3.53;;;;;;;7.88;64.41;99079.63;5044727;28;20043;-70
2020/12/20 00:17:33;;;;;;;5.18;2.97;;;;;;;7.88;64.34;99079.63;5031275;28;20487;-70
2020/12/20 00:19:59;;;;;;;6.50;3.30;;;;;;;7.91;64.31;99068.50;5048060;28;20083;-70
2020/12/20 00:22:24;;;;;;;6.03;3.50;;;;;;;7.75;64.63;99057.84;5032556;28;20031;-70
2020/12/20 00:24:50;;;;;;;8.30;3.40;;;;;;;7.86;64.54;99065.53;5036920;28;20595;-69
2020/12/20 00:27:15;;;;;;;10.80;3.97;;;;;;;7.65;64.46;99050.84;5044399;28;20037;-69
2020/12/20 00:29:41;;;;;;;4.80;2.85;;;;;;;7.64;64.66;99062.63;5035055;28;20052;-70
2020/12/20 00:32:09;;;;;;;5.25;2.75;;;;;;;7.60;65.49;99072.09;5049620;28;20057;-70
2020/12/20 00:34:36;;;;;;;6.55;3.25;;;;;;;7.46;65.87;99059.38;5043669;28;20040;-69
2020/12/20 00:37:02;;;;;;;7.13;3.10;;;;;;;7.47;65.89;99071.84;5042487;28;20021;-66
2020/12/20 00:39:28;;;;;;;7.35;3.30;;;;;;;7.43;65.87;99070.50;5046552;28;20032;-67
2020/12/20 00:41:55;;;;;;;6.07;3.33;;;;;;;7.41;66.24;99067.16;5050779;28;20025;-67
2020/12/20 00:44:24;;;;;;;9.20;3.58;;;;;;;7.31;65.82;99058.44;5031555;28;20065;-67
2020/12/20 00:46:50;;;;;;;7.28;3.35;;;;;;;7.34;66.75;99061.66;5048492;28;20090;-67
2020/12/20 00:49:15;;;;;;;6.60;3.20;;;;;;;7.34;67.42;99069.72;5050586;28;20044;-67
2020/12/20 00:51:41;;;;;;;5.18;2.90;;;;;;;7.33;67.42;99070.72;5046641;28;20025;-66
2020/12/20 00:54:06;;;;;;;6.25;3.60;;;;;;;7.22;68.53;99063.88;5048377;28;20664;-67
2020/12/20 00:56:32;;;;;;;6.60;3.45;;;;;;;7.10;67.53;99043.78;5050439;28;20024;-67
2020/12/20 00:58:58;;;;;;;4.60;2.80;;;;;;;7.19;67.68;99060.69;5050855;28;20028;-67
2020/12/20 01:01:23;;;;;;;7.07;3.00;;;;;;;7.16;67.29;99058.38;5048647;28;20482;-68
2020/12/20 01:03:48;;;;;;;4.95;3.22;;;;;;;7.24;67.17;99069.09;5040635;28;20021;-68
2020/12/20 01:06:18;;;;;;;5.57;3.28;;;;;;;7.15;67.30;99049.47;5035162;28;20025;-67
2020/12/20 01:08:43;;;;;;;5.60;3.30;;;;;;;7.02;67.96;99052.72;5039726;28;20494;-67
2020/12/20 01:11:09;;;;;;;6.75;3.63;;;;;;;7.07;69.18;99071.00;5043415;28;20029;-67
2020/12/20 01:13:34;;;;;;;5.75;3.78;;;;;;;7.07;68.78;99076.38;5045362;28;20032;-67
2020/12/20 01:15:59;;;;;;;6.68;3.42;;;;;;;6.94;69.23;99068.88;5046512;28;20037;-66
2020/12/20 01:18:25;;;;;;;8.45;3.85;;;;;;;7.02;69.33;99084.13;5042605;28;20394;-68
2020/12/20 01:20:50;;;;;;;5.72;3.67;;;;;;;7.01;69.78;99077.09;5045245;28;20049;-68
2020/12/20 01:23:15;;;;;;;6.10;3.90;;;;;;;6.90;69.98;99081.00;5049501;28;20031;-68
2020/12/20 01:25:40;;;;;;;10.40;4.38;;;;;;;6.86;70.37;99084.19;5045815;28;20406;-68
2020/12/20 01:28:06;;;;;;;6.97;4.00;;;;;;;6.75;71.49;99077.34;5030653;28;20142;-68
2020/12/20 01:30:31;;;;;;;5.80;3.38;;;;;;;6.69;71.67;99073.47;5046839;28;20112;-68
2020/12/20 01:32:56;;;;;;;6.63;3.72;;;;;;;6.71;71.79;99065.25;5031954;28;20483;-67
2020/12/20 01:35:22;;;;;;;8.50;3.55;;;;;;;6.73;71.42;99069.44;5045648;28;20021;-67
2020/12/20 01:37:47;;;;;;;7.90;3.80;;;;;;;6.65;71.07;99063.25;5034524;28;20061;-68
2020/12/20 01:40:12;;;;;;;7.75;3.70;;;;;;;6.55;71.39;99074.19;5046595;28;20099;-68
2020/12/20 01:42:37;;;;;;;7.72;3.88;;;;;;;6.62;71.26;99064.41;5048835;28;20108;-68
2020/12/20 01:45:04;;;;;;;7.63;4.20;;;;;;;6.44;71.58;99056.56;5039997;28;20029;-68
2020/12/20 01:47:32;;;;;;;8.25;4.10;;;;;;;6.47;72.10;99072.38;5043591;28;20063;-69
2020/12/20 01:49:59;;;;;;;7.18;3.65;;;;;;;6.45;72.63;99076.22;5049861;28;20104;-68
2020/12/20 01:52:24;;;;;;;8.93;4.47;;;;;;;6.42;72.08;99065.78;5050134;28;20487;-68
2020/12/20 01:54:53;;;;;;;6.25;4.00;;;;;;;6.44;72.82;99063.78;5042641;28;20029;-68
2020/12/20 01:57:18;;;;;;;7.97;4.50;;;;;;;6.42;72.44;99071.16;5037683;28;20054;-68
2020/12/20 01:59:45;;;;;;;6.22;3.90;;;;;;;6.38;72.84;99067.16;5046751;28;20033;-68
2020/12/20 02:02:10;;;;;;;7.90;4.35;;;;;;;6.38;72.35;99069.84;5030795;28;20059;-68
2020/12/20 02:04:36;;;;;;;6.97;3.83;;;;;;;6.42;72.77;99069.34;5048022;28;20054;-68
2020/12/20 02:07:01;;;;;;;8.05;4.03;;;;;;;6.32;73.55;99066.84;5032367;28;20025;-68
2020/12/20 02:09:26;;;;;;;6.65;3.97;;;;;;;6.33;73.72;99064.97;5050137;28;20107;-68
2020/12/20 02:11:52;;;;;;;8.82;4.15;;;;;;;6.29;73.21;99061.81;5048390;28;20033;-69
2020/12/20 02:14:17;;;;;;;7.88;4.38;;;;;;;6.13;73.46;99051.91;5034355;28;20036;-68
2020/12/20 02:16:43;;;;;;;7.88;4.10;;;;;;;6.15;73.79;99060.63;5044068;28;20036;-68
2020/12/20 02:19:08;;;;;;;7.68;4.28;;;;;;;6.21;73.58;99061.81;5054057;28;20534;-70
2020/12/20 02:21:34;;;;;;;6.97;4.53;;;;;;;6.23;73.85;99057.09;5048890;28;20036;-68
2020/12/20 02:23:59;;;;;;;8.57;3.83;;;;;;;6.30;74.52;99055.41;5047095;28;20037;-68
2020/12/20 02:26:26;;;;;;;10.57;4.60;;;;;;;6.36;74.16;99060.09;5053465;28;20120;-69
2020/12/20 02:28:52;;;;;;;11.65;4.75;;;;;;;6.36;74.40;99052.03;5049789;28;20378;-68
2020/12/20 02:31:19;;;;;;;9.27;3.75;;;;;;;6.41;74.35;99067.66;5046376;28;20050;-68
2020/12/20 02:33:44;;;;;;;7.47;4.15;;;;;;;6.40;74.24;99057.09;5049154;28;20411;-69
2020/12/20 02:36:11;;;;;;;7.32;4.10;;;;;;;6.44;75.37;99058.41;5023451;28;20025;-69
2020/12/20 02:38:36;;;;;;;7.30;3.97;;;;;;;6.43;74.77;99051.38;5050441;28;20029;-68
2020/12/20 02:41:01;;;;;;;7.00;4.03;;;;;;;6.39;74.93;99061.59;5053475;28;20032;-67
2020/12/20 02:43:28;;;;;;;7.18;3.72;;;;;;;6.35;73.71;99054.91;5051820;28;20048;-68
2020/12/20 02:45:54;;;;;;;8.48;4.40;;;;;;;6.41;74.25;99067.66;5052972;28;20045;-68
2020/12/20 02:48:19;;;;;;;6.57;3.80;;;;;;;6.48;73.82;99068.66;5048573;28;20109;-68
2020/12/20 02:50:45;;;;;;;8.77;4.10;;;;;;;6.48;73.46;99065.97;5052273;28;20082;-68
2020/12/20 02:53:10;;;;;;;8.38;3.83;;;;;;;6.48;74.63;99065.13;5050048;28;20443;-68
2020/12/20 02:55:36;;;;;;;6.15;3.70;;;;;;;6.53;73.79;99062.78;5047690;28;20024;-68
2020/12/20 02:58:01;;;;;;;6.32;3.40;;;;;;;6.66;72.54;99063.06;5045867;28;20052;-68
2020/12/20 03:00:27;;;;;;;7.53;3.60;;;;;;;6.87;71.92;99067.06;5054264;28;20532;-68
2020/12/20 03:02:52;;;;;;;7.10;3.97;;;;;;;6.82;74.06;99058.66;5049873;28;20025;-67
2020/12/20 03:05:17;;;;;;;10.90;5.03;;;;;;;6.79;74.26;99066.06;5050282;28;20059;-68
2020/12/20 03:07:44;;;;;;;8.63;5.00;;;;;;;6.69;74.72;99046.59;5046623;28;20025;-68
2020/12/20 03:10:10;;;;;;;9.18;4.53;;;;;;;6.58;75.47;99063.09;5045990;28;20027;-68
2020/12/20 03:12:35;;;;;;;9.48;4.35;;;;;;;6.46;76.03;99069.84;5047254;28;20025;-67
2020/12/20 03:15:00;;;;;;;6.88;4.63;;;;;;;6.31;77.45;99061.63;5046270;28;20112;-67
2020/12/20 03:17:25;;;;;;;9.48;5.10;;;;;;;6.18;77.87;99048.69;5043245;28;20040;-68
2020/12/20 03:19:51;;;;;;;7.63;4.25;;;;;;;6.23;77.93;99057.09;5047783;28;20028;-67
2020/12/20 03:22:16;;;;;;;7.88;4.85;;;;;;;6.22;79.17;99054.59;5051038;28;20388;-68
2020/12/20 03:24:41;;;;;;;8.15;4.78;;;;;;;6.25;79.23;99063.13;5042387;28;20017;-68
2020/12/20 03:27:07;;;;;;;7.88;5.05;;;;;;;6.17;80.28;99057.78;5034181;28;20037;-67
2020/12/20 03:29:32;;;;;;;11.05;5.75;;;;;;;6.15;80.15;99059.78;5039169;28;20017;-68
2020/12/20 03:31:57;;;;;;;9.75;5.88;;;;;;;6.02;79.86;99038.78;5046561;28;20021;-68
2020/12/20 03:34:23;;;;;;;7.93;4.57;;;;;;;6.18;77.95;99054.06;5045135;28;20075;-67
2020/12/20 03:36:48;;;;;;;10.95;4.88;;;;;;;6.21;77.63;99043.00;5052059;28;20029;-68
2020/12/20 03:39:13;;;;;;;7.28;3.88;;;;;;;6.23;75.60;99040.97;5050359;28;20104;-68
2020/12/20 03:41:39;;;;;;;6.57;4.30;;;;;;;6.19;76.51;99023.53;5051620;28;20155;-68
2020/12/20 03:44:04;;;;;;;7.70;4.45;;;;;;;6.32;75.24;99045.34;5041041;28;20052;-67
2020/12/20 03:46:29;;;;;;;10.05;4.38;;;;;;;6.39;75.76;99050.00;5033465;28;20578;-68
2020/12/20 03:48:54;;;;;;;7.38;4.43;;;;;;;6.35;75.97;99046.84;5041080;28;20032;-67
2020/12/20 03:51:20;;;;;;;6.22;3.63;;;;;;;6.40;76.22;99049.03;5049135;28;20032;-68
2020/12/20 03:53:45;;;;;;;9.77;4.75;;;;;;;6.35;76.75;99044.16;5052073;28;20037;-67
2020/12/20 03:56:10;;;;;;;6.10;3.70;;;;;;;6.31;75.38;99042.81;5047491;28;20091;-68
2020/12/20 03:58:36;;;;;;;7.13;4.05;;;;;;;6.39;75.01;99041.94;5050050;28;20057;-68
2020/12/20 04:01:02;;;;;;;8.93;3.92;;;;;;;6.39;74.89;99058.06;5051390;28;20036;-67
2020/12/20 04:03:28;;;;;;;7.40;4.25;;;;;;;6.37;75.64;99052.88;5048583;28;20059;-67
2020/12/20 04:05:53;;;;;;;7.00;3.92;;;;;;;6.31;75.48;99038.28;5048435;28;20060;-67
2020/12/20 04:08:18;;;;;;;6.43;3.75;;;;;;;6.53;75.01;99034.03;5048279;28;20071;-67
2020/12/20 04:10:43;;;;;;;7.38;4.03;;;;;;;6.49;75.10;99054.19;5038431;28;20405;-67
2020/12/20 04:13:09;;;;;;;5.57;3.35;;;;;;;6.42;75.23;99050.53;5026675;28;20029;-68
2020/12/20 04:15:34;;;;;;;9.27;4.20;;;;;;;6.34;75.32;99048.69;5030429;28;20030;-68
2020/12/20 04:17:59;;;;;;;5.97;3.92;;;;;;;6.34;76.17;99051.38;5038837;28;20032;-67
2020/12/20 04:20:24;;;;;;;9.48;4.20;;;;;;;6.33;76.50;99046.16;5045961;28;20394;-68
2020/12/20 04:22:50;;;;;;;5.47;3.80;;;;;;;6.31;77.20;99053.56;5050862;28;20025;-67
2020/12/20 04:25:15;;;;;;;7.07;3.90;;;;;;;6.23;77.04;99048.19;5045136;28;20037;-68
2020/12/20 04:27:40;;;;;;;6.43;4.07;;;;;;;6.28;77.29;99049.34;5050801;28;20106;-67
2020/12/20 04:30:05;;;;;;;7.43;4.20;;;;;;;6.31;77.68;99050.88;5045261;28;20033;-68
2020/12/20 04:32:31;;;;;;;6.57;3.75;;;;;;;6.31;77.21;99053.56;5050403;28;20469;-68
2020/12/20 04:34:56;;;;;;;7.03;3.80;;;;;;;6.29;77.09;99042.16;5048084;28;20028;-67
2020/12/20 04:37:21;;;;;;;6.25;3.97;;;;;;;6.40;76.20;99038.28;5051517;28;20089;-67
2020/12/20 04:39:47;;;;;;;8.43;4.38;;;;;;;6.31;77.52;99035.59;5049825;28;20159;-67
2020/12/20 04:42:12;;;;;;;6.47;3.38;;;;;;;6.47;76.74;99037.44;5051822;28;20493;-68
2020/12/20 04:44:38;;;;;;;6.43;3.63;;;;;;;6.43;75.40;99048.69;5045333;28;20037;-67
2020/12/20 04:47:03;;;;;;;5.75;3.75;;;;;;;6.39;74.69;99048.16;5047254;28;20017;-68
2020/12/20 04:49:30;;;;;;;5.53;3.55;;;;;;;6.41;74.77;99056.06;5038564;28;20074;-67
2020/12/20 04:51:58;;;;;;;6.28;3.70;;;;;;;6.38;75.32;99051.03;5046677;28;20063;-68
2020/12/20 04:54:24;;;;;;;5.70;3.42;;;;;;;6.42;74.39;99050.53;5034519;28;20157;-68
2020/12/20 04:56:49;;;;;;;5.97;3.70;;;;;;;6.34;77.34;99055.91;5046544;28;20483;-68
2020/12/20 04:59:15;;;;;;;8.07;3.63;;;;;;;6.18;78.07;99037.94;5036718;28;20016;-68
2020/12/20 05:01:40;;;;;;;6.07;3.78;;;;;;;6.17;78.37;99059.63;5049469;28;20112;-68
2020/12/20 05:04:06;;;;;;;5.28;3.70;;;;;;;6.04;78.73;99050.22;5046350;28;20396;-68
2020/12/20 05:06:32;;;;;;;5.55;3.30;;;;;;;6.04;79.46;99052.91;5050975;28;20402;-67
2020/12/20 05:08:59;;;;;;;5.70;3.53;;;;;;;6.01;78.85;99050.56;5044379;28;20497;-68
2020/12/20 05:11:35;;;;;;;5.55;3.47;;;;;;;6.02;78.82;99048.72;5042333;28;20462;-68
2020/12/20 05:14:01;;;;;;;8.27;4.15;;;;;;;6.02;78.27;99037.97;5036275;28;20036;-68
2020/12/20 05:16:37;;;;;;;5.40;3.45;;;;;;;6.11;76.46;99039.66;5043427;28;20045;-68
2020/12/20 05:19:04;;;;;;;5.55;3.60;;;;;;;6.14;76.85;99037.47;5036227;28;20119;-68
2020/12/20 05:21:30;;;;;;;6.45;3.83;;;;;;;6.23;75.91;99045.50;5033435;28;20024;-68
2020/12/20 05:23:57;;;;;;;6.43;3.78;;;;;;;6.29;75.25;99045.69;5044412;28;20471;-68
2020/12/20 05:26:31;;;;;;;6.88;3.65;;;;;;;6.31;75.07;99049.03;5051485;28;20067;-67
2020/12/20 05:29:07;;;;;;;5.82;3.40;;;;;;;6.34;74.73;99043.31;5049368;28;20025;-68
2020/12/20 05:31:32;;;;;;;7.15;3.50;;;;;;;6.35;76.02;99039.63;5047141;28;20445;-68
2020/12/20 05:33:58;;;;;;;5.85;3.65;;;;;;;6.30;77.49;99047.34;5044346;28;20059;-68
2020/12/20 05:36:26;;;;;;;5.78;3.50;;;;;;;6.23;78.42;99032.06;5045191;28;20399;-68
2020/12/20 05:38:51;;;;;;;5.07;3.42;;;;;;;6.05;76.73;99016.13;5039821;28;20033;-68
2020/12/20 05:41:29;;;;;;;5.97;3.55;;;;;;;6.20;77.85;99037.78;5048316;28;20504;-68
2020/12/20 05:44:21;;;;;;;6.93;4.38;;;;;;;6.18;78.18;99037.94;5048599;28;20028;-68
2020/12/20 05:46:47;;;;;;;7.88;4.82;;;;;;;6.05;78.09;99027.75;5033085;28;20379;-68
2020/12/20 05:49:18;;;;;;;8.13;4.88;;;;;;;6.01;77.49;99037.13;5052817;28;20032;-67
2020/12/20 05:52:05;;;;;;;7.68;4.10;;;;;;;6.07;76.07;99039.13;5051411;28;20028;-68
2020/12/20 05:54:36;;;;;;;7.85;4.53;;;;;;;6.04;77.53;99041.31;5052004;28;20040;-68
2020/12/20 05:57:21;;;;;;;8.75;4.50;;;;;;;6.10;76.56;99051.38;5030739;28;20025;-68
2020/12/20 05:59:53;;;;;;;6.63;3.92;;;;;;;6.10;77.14;99056.75;5047408;28;20112;-68
2020/12/20 06:02:19;;;;;;;5.88;3.78;;;;;;;6.07;77.01;99049.88;5049258;28;20435;-68
2020/12/20 06:04:47;;;;;;;6.40;3.83;;;;;;;6.06;78.47;99050.06;5049515;28;20600;-68
2020/12/20 06:07:13;;;;;;;8.63;3.80;;;;;;;6.04;78.18;99052.91;5051226;28;20036;-68
2020/12/20 06:09:46;;;;;;;6.38;3.88;;;;;;;6.03;78.08;99055.78;5043308;28;20029;-67
2020/12/20 06:12:16;;;;;;;6.15;3.90;;;;;;;6.18;76.71;99053.22;5049796;28;20382;-67
2020/12/20 06:14:45;;;;;;;5.93;3.80;;;;;;;6.12;76.62;99044.84;5051424;28;20024;-67
2020/12/20 06:17:14;;;;;;;6.55;3.88;;;;;;;6.36;75.04;99061.94;5037870;28;20032;-78
2020/12/20 06:19:56;;;;;;;5.63;3.45;;;;;;;6.34;75.00;99058.56;5046163;28;20064;-79
2020/12/20 06:22:29;;;;;;;6.20;3.72;;;;;;;6.27;76.36;99061.13;5049121;28;20017;-79
2020/12/20 06:25:00;;;;;;;7.78;3.78;;;;;;;6.14;77.91;99050.06;5036360;28;20024;-73
2020/12/20 06:27:30;;;;;;;8.75;4.65;;;;;;;6.33;78.68;99071.19;5055052;28;20064;-72
2020/12/20 06:30:01;;;;;;;7.80;3.85;;;;;;;6.26;78.33;99067.53;5051379;28;20053;-74
2020/12/20 06:32:33;;;;;;;7.78;4.03;;;;;;;6.34;77.89;99066.66;5094233;22;20131;-74
2020/12/20 06:35:00;;;;;;;7.45;4.20;;;;;;;6.34;78.88;99063.94;5051932;28;20033;-73
2020/12/20 06:37:26;;;;;;;8.57;4.22;;;;;;;6.30;79.48;99076.91;5054003;28;20025;-73
2020/12/20 06:39:51;;;;;;;7.00;4.30;;;;;;;6.26;80.13;99069.34;5055293;28;20519;-75
2020/12/20 06:42:35;;;;;;;10.07;3.90;;;;;;;6.37;79.90;99074.38;5060582;28;20108;-73
2020/12/20 06:45:20;;;;;;;7.93;4.28;;;;;;;6.10;79.93;99073.75;5056185;28;20108;-74
2020/12/20 06:47:53;;;;;;;6.20;4.25;;;;;;;6.07;80.37;99067.84;5052686;28;20029;-71
2020/12/20 06:50:47;;;;;;;7.35;4.22;;;;;;;6.15;80.44;99081.28;5041892;28;20467;-72
2020/12/20 06:53:16;;;;;;;8.63;4.97;;;;;;;5.97;81.67;99088.66;5053506;28;20446;-72
2020/12/20 06:55:41;;;;;;;10.30;6.33;;;;;;;5.78;82.69;99089.78;5034360;28;20100;-72
2020/12/20 06:58:09;;;;;;;13.15;7.03;;;;;;;5.94;81.91;99073.72;5053013;28;20031;-71
2020/12/20 07:00:45;;;;;;;11.75;7.03;;;;;;;5.84;82.71;99100.72;5051463;28;20033;-72
2020/12/20 07:03:31;;;;;;;10.82;6.18;;;;;;;6.05;81.90;99089.53;5052204;28;20032;-72
2020/12/20 07:06:09;;;;;;;10.50;5.93;;;;;;;5.91;82.43;99079.38;5050205;28;20025;-72
2020/12/20 07:08:38;;;;;;;10.60;6.57;;;;;;;5.88;82.11;99085.94;5048804;28;20021;-72
2020/12/20 07:11:09;;;;;;;10.68;6.30;;;;;;;5.96;82.81;99098.56;5052051;28;20056;-72
2020/12/20 07:13:42;;;;;;;9.27;6.13;;;;;;;5.87;82.11;99089.63;5051767;28;20555;-72
2020/12/20 07:16:15;;;;;;;10.07;6.10;;;;;;;5.93;81.94;99099.72;5046193;28;20044;-72
2020/12/20 07:18:43;;;;;;;11.05;5.55;;;;;;;5.86;81.74;99097.84;5052095;28;20036;-73
2020/12/20 07:21:33;;;;;;;11.07;5.95;;;;;;;5.64;82.87;99102.00;5048710;28;20394;-72
2020/12/20 07:24:11;;;;;;;9.27;5.93;;;;;;;5.68;82.44;99108.72;5037692;28;20056;-71
2020/12/20 07:26:36;;;;;;;10.68;5.47;;;;;;;5.68;81.79;99111.41;5047634;28;20039;-72
2020/12/20 07:29:03;;;;;;;10.13;5.78;;;;;;;5.49;82.21;99120.59;5049934;28;20029;-72
2020/12/20 07:31:29;;;;;;;11.30;5.80;;;;;;;5.45;83.08;99122.75;5051533;28;20025;-73
2020/12/20 07:33:55;;;;;;;11.18;6.78;;;;;;;5.29;83.56;99111.94;5051077;28;20032;-72
2020/12/20 07:36:22;;;;;;;8.23;5.28;;;;;;;5.19;83.83;99106.75;5050611;28;20519;-72
2020/12/20 07:38:48;;;;;;;15.50;5.38;;;;;;;5.26;84.26;99131.06;5050081;28;20120;-72
2020/12/20 07:41:16;;;;;;;9.65;5.20;;;;;;;5.30;84.17;99131.59;5052623;28;20037;-72
2020/12/20 07:43:42;;;;;;;11.68;5.65;;;;;;;5.30;83.62;99134.28;5053620;28;20096;-73
2020/12/20 07:46:09;;;;;;;9.13;5.35;;;;;;;5.51;83.18;99140.06;5065249;28;20029;-71
2020/12/20 07:48:36;;;;;;;10.00;5.70;;;;;;;5.71;81.92;99140.59;5055910;28;20474;-72
2020/12/20 07:51:22;;;;;;;17.88;6.65;;;;;;;5.78;81.70;99144.31;5060615;28;20394;-72
2020/12/20 07:53:49;;;;;;;10.38;6.70;;;;;;;5.80;80.76;99136.09;5054814;28;20111;-73
2020/12/20 07:56:54;;;;;;;12.07;6.88;;;;;;;5.82;80.74;99140.31;5064163;28;20558;-72
2020/12/20 07:59:19;;;;;;;10.13;6.47;;;;;;;5.60;81.30;99140.91;5050742;28;20044;-72
2020/12/20 08:01:47;;;;;;;12.30;7.13;;;;;;;5.70;81.53;99145.13;5052114;28;20101;-71
2020/12/20 08:04:14;;;;;;;10.35;6.75;;;;;;;5.75;81.55;99160.75;5052192;28;20029;-71
2020/12/20 08:06:46;;;;;;;10.45;6.38;;;;;;;5.62;82.05;99152.31;5053191;28;20350;-71
2020/12/20 08:09:13;;;;;;;9.30;6.00;;;;;;;5.91;80.69;99154.56;5034719;28;20028;-75
2020/12/20 08:11:40;;;;;;;10.55;6.28;;;;;;;5.81;81.44;99143.13;5059674;28;20158;-74
2020/12/20 08:14:14;;;;;;;18.13;9.57;;;;;;;5.91;81.89;99149.22;5051855;28;20020;-74
2020/12/20 08:16:43;;;;;;;18.27;8.35;;;;;;;6.08;80.83;99134.84;5039196;28;20090;-73
2020/12/20 08:19:14;;;;;;;15.50;7.82;;;;;;;6.06;81.31;99152.97;5052467;28;20029;-70
2020/12/20 08:22:00;;;;;;;12.43;6.10;;;;;;;5.90;80.42;99144.84;5045312;28;20040;-73
2020/12/20 08:24:49;;;;;;;9.52;5.88;;;;;;;5.90;79.85;99150.22;5058950;28;20073;-75
2020/12/20 08:27:21;;;;;;;13.00;6.28;;;;;;;5.95;80.36;99130.94;5047283;28;20452;-77
2020/12/20 08:29:49;;;;;;;11.02;6.07;;;;;;;5.93;80.34;99144.53;5052597;28;20041;-76
2020/12/20 08:32:18;;;;;;;11.27;6.53;;;;;;;6.03;80.02;99134.50;5052292;28;20431;-77
2020/12/20 08:34:44;;;;;;;11.48;6.70;;;;;;;6.07;79.78;99127.78;5052640;28;20111;-77
2020/12/20 08:37:12;;;;;;;10.50;5.75;;;;;;;6.09;80.12;99133.00;5051540;28;20039;-73
2020/12/20 08:39:38;;;;;;;9.40;5.72;;;;;;;6.08;80.03;99126.78;5052667;28;20472;-76
2020/12/20 08:42:06;;;;;;;10.70;6.40;;;;;;;6.26;79.16;99136.50;5052532;28;20021;-73
2020/12/20 08:44:32;;;;;;;11.07;6.93;;;;;;;6.17;79.94;99137.53;5052467;28;20481;-76
2020/12/20 08:47:23;;;;;;;10.30;5.45;;;;;;;6.31;79.49;99155.66;5066892;28;20032;-76
2020/12/20 08:49:59;;;;;;;10.02;6.22;;;;;;;6.37;79.35;99152.31;5028720;28;20079;-74
2020/12/20 08:52:31;;;;;;;8.43;5.68;;;;;;;6.38;79.95;99153.16;5051242;28;20105;-73
2020/12/20 08:54:58;;;;;;;8.70;5.63;;;;;;;6.41;79.44;99145.59;5032515;28;20025;-75
2020/12/20 08:57:27;;;;;;;7.13;4.53;;;;;;;6.49;78.90;99139.38;5047097;28;20056;-74
2020/12/20 08:59:53;;;;;;;7.05;4.45;;;;;;;6.71;78.60;99164.75;5048821;28;20431;-74
2020/12/20 09:02:22;;;;;;;12.15;5.70;;;;;;;6.80;79.17;99161.03;5051988;28;20108;-76
2020/12/20 09:04:55;;;;;;;8.27;5.18;;;;;;;6.93;78.78;99165.88;5033591;28;20036;-76
2020/12/20 09:07:32;;;;;;;10.07;5.88;;;;;;;6.96;78.14;99158.28;5047363;28;20116;-74
2020/12/20 09:10:12;;;;;;;10.35;5.75;;;;;;;7.07;77.79;99146.31;5051877;28;20025;-75
2020/12/20 09:12:59;;;;;;;7.53;4.72;;;;;;;7.43;76.90;99164.72;5048718;28;20500;-77
2020/12/20 09:15:27;;;;;;;9.70;5.32;;;;;;;7.73;76.56;99164.91;5051339;28;20024;-76
2020/12/20 09:17:53;;;;;;;6.78;4.78;;;;;;;7.76;75.69;99151.94;5051180;28;20056;-74
2020/12/20 09:20:23;;;;;;;6.93;4.88;;;;;;;8.10;74.58;99166.91;5049257;28;20415;-69
2020/12/20 09:22:52;;;;;;;8.98;5.28;;;;;;;8.27;74.12;99171.16;5050231;28;20040;-69
2020/12/20 09:25:33;;;;;;;8.90;5.10;;;;;;;8.80;71.02;99165.84;5051567;28;20021;-68
2020/12/20 09:28:04;;;;;;;6.03;4.38;;;;;;;10.73;66.41;99163.66;5051127;28;20037;-68
2020/12/20 09:30:35;;;;;;;8.32;4.40;;;;;;;12.94;59.55;99164.38;5050608;28;20033;-69
2020/12/20 09:33:00;;;;;;;5.30;3.92;;;;;;;14.84;55.07;99149.56;5051948;28;20029;-69
2020/12/20 09:35:26;;;;;;;5.80;4.03;;;;;;;14.83;53.79;99147.91;5047343;28;20039;-69
2020/12/20 09:37:53;;;;;;;10.27;4.50;;;;;;;14.52;54.19;99138.66;5046257;28;20043;-69
2020/12/20 09:40:19;;;;;;;7.38;4.15;;;;;;;13.97;54.51;99143.81;5048492;28;20052;-69
2020/12/20 09:42:45;;;;;;;6.18;3.90;;;;;;;14.94;52.94;99138.16;5048128;28;20482;-74
2020/12/20 09:45:11;;;;;;;6.35;3.95;;;;;;;15.27;53.02;99138.69;5051255;28;20376;-75
2020/12/20 09:47:39;;;;;;;5.68;4.00;;;;;;;14.65;54.31;99135.03;5051517;28;20078;-75
2020/12/20 09:50:05;;;;;;;5.95;4.22;;;;;;;12.95;58.70;99148.91;5051761;28;20025;-71
2020/12/20 09:52:31;;;;;;;7.93;4.97;;;;;;;13.09;58.05;99130.69;5045612;28;20036;-78
2020/12/20 09:54:56;;;;;;;7.10;4.80;;;;;;;12.07;60.46;99136.28;5048862;28;20422;-74
2020/12/20 09:57:22;;;;;;;7.15;4.55;;;;;;;12.21;60.95;99139.88;5043843;28;20090;-73
2020/12/20 09:59:47;;;;;;;6.25;4.57;;;;;;;11.52;61.87;99135.44;5049876;28;20114;-80
2020/12/20 10:02:12;;;;;;;10.77;5.32;;;;;;;12.04;60.89;99127.72;5032234;28;20025;-74
2020/12/20 10:04:37;;;;;;;7.35;4.65;;;;;;;10.62;64.59;99150.69;5033042;28;20031;-72
2020/12/20 10:07:03;;;;;;;11.45;4.97;;;;;;;10.56;65.92;99151.47;5050487;28;20506;-73
2020/12/20 10:09:28;;;;;;;7.40;5.13;;;;;;;10.22;66.29;99139.47;5050532;28;20036;-74
2020/12/20 10:11:54;;;;;;;7.43;4.85;;;;;;;10.10;66.97;99146.41;5047799;28;20051;-77
2020/12/20 10:14:19;;;;;;;8.55;5.03;;;;;;;10.39;66.82;99134.66;5043813;28;20738;-78
2020/12/20 10:16:45;;;;;;;9.38;6.03;;;;;;;10.77;65.16;99141.63;5032748;28;20033;-77
2020/12/20 10:19:10;;;;;;;8.93;6.80;;;;;;;10.35;66.73;99119.84;5051336;28;20390;-77
2020/12/20 10:21:35;;;;;;;13.10;7.45;;;;;;;10.69;65.98;99126.41;5049304;28;20037;-74
2020/12/20 10:24:00;;;;;;;10.95;6.88;;;;;;;10.30;66.96;99136.66;5053062;28;20493;-74
2020/12/20 10:26:26;;;;;;;11.60;7.32;;;;;;;10.59;65.37;99124.00;5055063;28;20053;-75
2020/12/20 10:28:51;;;;;;;9.52;7.00;;;;;;;9.70;67.10;99097.31;5050396;28;20029;-75
2020/12/20 10:31:18;;;;;;;11.05;6.45;;;;;;;9.74;66.89;99130.19;5049169;28;20029;-74
2020/12/20 10:33:43;;;;;;;9.25;5.80;;;;;;;9.58;67.32;99128.53;5051656;28;20037;-76
2020/12/20 10:36:08;;;;;;;8.85;5.93;;;;;;;9.66;67.97;99128.44;5051973;28;20024;-75
2020/12/20 10:38:33;;;;;;;10.38;6.25;;;;;;;9.51;68.11;99128.47;5052715;28;20544;-78
2020/12/20 10:40:59;;;;;;;8.43;5.65;;;;;;;9.65;67.50;99124.06;5054797;28;20017;-75
2020/12/20 10:43:24;;;;;;;9.48;6.18;;;;;;;9.56;68.29;99154.91;5054779;28;20024;-77
2020/12/20 10:45:49;;;;;;;10.38;6.30;;;;;;;9.25;69.77;99134.38;5047319;28;20029;-77
2020/12/20 10:48:15;;;;;;;10.68;5.72;;;;;;;9.48;69.31;99147.75;5036620;28;20066;-75
2020/12/20 10:50:40;;;;;;;10.63;5.80;;;;;;;9.61;69.11;99157.88;5056503;28;20025;-74
2020/12/20 10:53:05;;;;;;;7.93;5.68;;;;;;;9.64;68.00;99136.75;5054811;28;20594;-75
2020/12/20 10:55:30;;;;;;;8.30;5.32;;;;;;;9.57;69.08;99159.31;5054086;28;20044;-75
2020/12/20 10:57:56;;;;;;;10.07;5.80;;;;;;;9.40;69.83;99145.97;5033429;28;20032;-75
2020/12/20 11:00:22;;;;;;;9.55;5.82;;;;;;;9.30;70.57;99121.16;5053919;28;20043;-78
2020/12/20 11:02:47;;;;;;;13.13;5.78;;;;;;;9.25;71.34;99147.88;5055949;28;20028;-76
2020/12/20 11:05:12;;;;;;;9.25;6.00;;;;;;;8.87;71.98;99114.72;5056800;28;20029;-77
2020/12/20 11:07:38;;;;;;;8.20;5.43;;;;;;;8.95;71.89;99131.63;5055725;28;20155;-70
2020/12/20 11:10:03;;;;;;;9.00;5.22;;;;;;;9.15;70.95;99145.44;5036232;28;20036;-73
2020/12/20 11:12:28;;;;;;;8.90;5.45;;;;;;;9.07;71.20;99144.69;5053179;28;20025;-72
2020/12/20 11:14:54;;;;;;;9.13;5.95;;;;;;;9.27;71.69;99137.69;5051858;28;20040;-71
2020/12/20 11:17:19;;;;;;;6.63;4.53;;;;;;;9.83;69.73;99146.13;5051035;28;20125;-71
2020/12/20 11:19:44;;;;;;;5.70;4.25;;;;;;;10.72;67.16;99161.19;5052692;28;20052;-71
2020/12/20 11:22:10;;;;;;;6.63;4.68;;;;;;;11.92;63.42;99146.47;5050934;28;20025;-71
2020/12/20 11:24:36;;;;;;;6.28;4.53;;;;;;;13.12;59.75;99135.69;5052999;28;20104;-72
2020/12/20 11:27:01;;;;;;;5.53;4.28;;;;;;;14.11;57.01;99131.81;5044034;28;20111;-72
2020/12/20 11:29:26;;;;;;;7.25;4.50;;;;;;;14.16;55.57;99125.72;5057669;28;20593;-72
2020/12/20 11:31:52;;;;;;;5.70;4.15;;;;;;;15.00;55.05;99127.19;5061248;28;20036;-73
2020/12/20 11:34:17;;;;;;;5.53;3.90;;;;;;;15.48;53.38;99126.50;5048472;28;20033;-72
2020/12/20 11:36:43;;;;;;;7.63;4.22;;;;;;;16.07;52.23;99131.44;5050134;28;20036;-73
2020/12/20 11:39:10;;;;;;;5.25;4.10;;;;;;;16.55;50.95;99128.63;5052339;28;20025;-72
2020/12/20 11:41:36;;;;;;;6.15;4.35;;;;;;;15.14;53.26;99122.44;5050847;28;20062;-73